Time;durP1;ratioP1;P1;durP2;ratioP2;P2;SDS_P1;SDS_P2;PMS_P1;PMS_P2;Temp;Humidity;BMP_temperature;BMP_pressure;BME280_temperature;BME280_humidity;BME280_pressure;Samples;Min_cycle;Max_cycle;Signal;HPM_P1;HPM_P2
2023/10/18 00:02:51;;;;;;;17.38;8.93;;;7.00;99.90;;;;;;4987607;28;20078;-69
2023/10/18 00:05:18;;;;;;;22.60;10.88;;;7.10;99.90;;;;;;4987075;28;20041;-69
2023/10/18 00:07:44;;;;;;;19.33;9.95;;;7.10;99.90;;;;;;4983716;28;20030;-69
2023/10/18 00:10:10;;;;;;;22.27;10.15;;;7.10;99.90;;;;;;4990004;28;20425;-69
2023/10/18 00:12:38;;;;;;;22.85;10.45;;;7.10;99.90;;;;;;4988933;28;20117;-69
2023/10/18 00:15:05;;;;;;;19.77;10.60;;;7.10;99.90;;;;;;4987786;28;21859;-69
2023/10/18 00:17:34;;;;;;;21.42;9.55;;;7.10;99.90;;;;;;4989560;28;20053;-69
2023/10/18 00:20:00;;;;;;;;;;;7.10;99.90;;;;;;4988226;28;20034;-69
2023/10/18 00:22:28;;;;;;;19.60;9.75;;;7.10;99.90;;;;;;4988906;28;20403;-69
2023/10/18 00:24:55;;;;;;;;;;;7.10;99.90;;;;;;4990256;28;20040;-69
2023/10/18 00:27:21;;;;;;;17.60;9.10;;;7.10;99.90;;;;;;4984488;28;19918;-69
2023/10/18 00:29:47;;;;;;;18.90;9.80;;;7.10;99.90;;;;;;4985744;28;20064;-69
2023/10/18 00:32:12;;;;;;;19.00;9.55;;;7.10;99.90;;;;;;4988009;28;20042;-69
2023/10/18 00:34:38;;;;;;;24.42;10.50;;;7.20;99.90;;;;;;4987599;28;20420;-69
2023/10/18 00:37:07;;;;;;;17.52;9.57;;;7.10;99.90;;;;;;4986348;28;20397;-69
2023/10/18 00:39:39;;;;;;;18.73;9.55;;;7.00;99.90;;;;;;4987196;28;20484;-69
2023/10/18 00:42:25;;;;;;;19.85;10.60;;;7.10;99.90;;;;;;4988385;28;20057;-69
2023/10/18 00:45:01;;;;;;;21.67;9.63;;;7.00;99.90;;;;;;4987944;28;20116;-69
2023/10/18 00:47:29;;;;;;;19.52;10.25;;;7.00;99.90;;;;;;4986515;28;20057;-69
2023/10/18 00:49:55;;;;;;;17.60;9.45;;;7.10;99.90;;;;;;4989138;28;20035;-69
2023/10/18 00:52:24;;;;;;;20.67;9.57;;;7.10;99.90;;;;;;4981428;28;20564;-69
2023/10/18 00:54:53;;;;;;;19.23;9.80;;;7.00;99.90;;;;;;4985820;28;20026;-69
2023/10/18 00:57:24;;;;;;;18.45;9.52;;;7.10;99.90;;;;;;4986120;28;20113;-69
2023/10/18 00:59:55;;;;;;;20.73;9.73;;;7.00;99.90;;;;;;4987731;28;20018;-69
2023/10/18 01:02:27;;;;;;;18.80;9.35;;;7.00;99.90;;;;;;4987893;28;20026;-69
2023/10/18 01:04:54;;;;;;;18.63;9.18;;;7.00;99.90;;;;;;4987720;28;20022;-69
2023/10/18 01:07:20;;;;;;;18.73;9.00;;;6.90;99.90;;;;;;4990320;28;20030;-69
2023/10/18 01:09:53;;;;;;;19.83;9.55;;;6.90;99.90;;;;;;4988701;28;20049;-69
2023/10/18 01:12:20;;;;;;;18.55;8.90;;;6.90;99.90;;;;;;4986257;28;20165;-69
2023/10/18 01:14:45;;;;;;;19.15;9.60;;;6.90;99.90;;;;;;4988239;28;20033;-69
2023/10/18 01:17:11;;;;;;;15.27;8.15;;;6.90;99.90;;;;;;4985639;28;20026;-69
2023/10/18 01:19:40;;;;;;;20.10;9.82;;;6.90;99.90;;;;;;4987678;28;20042;-69
2023/10/18 01:22:11;;;;;;;23.92;9.18;;;6.90;99.90;;;;;;4988183;28;20027;-69
2023/10/18 01:24:38;;;;;;;19.90;8.80;;;6.90;99.90;;;;;;4985387;28;20038;-69
2023/10/18 01:27:08;;;;;;;18.13;8.47;;;6.90;99.90;;;;;;4986935;28;20029;-70
2023/10/18 01:29:38;;;;;;;17.10;8.27;;;6.90;99.90;;;;;;4986072;28;20264;-69
2023/10/18 01:32:08;;;;;;;16.00;8.32;;;6.80;99.90;;;;;;4987298;28;20026;-69
2023/10/18 01:34:37;;;;;;;17.27;8.85;;;6.80;99.90;;;;;;4984271;28;20160;-69
2023/10/18 01:37:13;;;;;;;15.48;8.07;;;6.80;99.90;;;;;;4983975;28;20037;-69
2023/10/18 01:39:41;;;;;;;18.77;8.95;;;6.70;99.90;;;;;;4985583;28;20027;-69
2023/10/18 01:42:13;;;;;;;;;;;6.80;99.90;;;;;;4987601;28;20026;-69
2023/10/18 01:44:39;;;;;;;14.93;8.13;;;6.70;99.90;;;;;;4985745;28;20351;-69
2023/10/18 01:47:08;;;;;;;16.33;8.25;;;6.70;99.90;;;;;;4987092;28;20043;-69
2023/10/18 01:49:44;;;;;;;16.98;8.80;;;6.70;99.90;;;;;;4985411;28;20169;-69
2023/10/18 01:52:12;;;;;;;17.38;8.75;;;6.70;99.90;;;;;;4982922;28;20054;-69
2023/10/18 01:54:38;;;;;;;;;;;6.70;99.90;;;;;;4986408;28;20034;-69
2023/10/18 01:57:06;;;;;;;16.25;7.88;;;6.70;99.90;;;;;;4985503;28;19949;-69
2023/10/18 01:59:34;;;;;;;15.82;8.13;;;6.70;99.90;;;;;;4986902;28;20022;-69
2023/10/18 02:02:05;;;;;;;17.65;8.20;;;6.80;99.90;;;;;;4992411;28;20026;-69
2023/10/18 02:04:37;;;;;;;22.67;9.13;;;6.80;99.90;;;;;;4991501;28;20033;-69
2023/10/18 02:07:05;;;;;;;16.73;8.68;;;6.70;99.90;;;;;;4989685;28;20035;-69
2023/10/18 02:12:36;;;;;;;16.83;8.27;;;6.70;99.90;;;;;;4987722;28;20092;-64
2023/10/18 02:15:06;;;;;;;17.77;8.05;;;6.60;99.90;;;;;;4989399;28;20026;-64
2023/10/18 02:17:39;;;;;;;17.02;7.95;;;6.60;99.90;;;;;;4985664;28;20048;-64
2023/10/18 02:20:26;;;;;;;20.65;8.93;;;6.60;99.90;;;;;;4990553;28;20022;-64
2023/10/18 02:22:59;;;;;;;14.90;8.07;;;6.60;99.90;;;;;;4988979;28;20026;-64
2023/10/18 02:25:44;;;;;;;17.40;7.80;;;6.50;99.90;;;;;;4991394;28;20058;-64
2023/10/18 02:28:22;;;;;;;15.82;7.95;;;6.50;99.90;;;;;;4989598;28;20031;-64
2023/10/18 02:33:40;;;;;;;17.48;8.00;;;6.50;99.90;;;;;;4985899;28;20086;-64
2023/10/18 02:36:12;;;;;;;17.58;8.15;;;6.50;99.90;;;;;;4989057;28;20061;-64
2023/10/18 02:38:41;;;;;;;16.70;8.25;;;6.50;99.90;;;;;;4991545;28;20116;-64
2023/10/18 02:41:26;;;;;;;14.00;7.43;;;6.50;99.90;;;;;;4992215;28;20022;-64
2023/10/18 02:43:55;;;;;;;15.85;8.25;;;6.60;99.90;;;;;;4987754;28;20054;-64
2023/10/18 02:46:27;;;;;;;16.20;7.95;;;6.60;99.90;;;;;;4987336;28;20380;-64
2023/10/18 02:48:57;;;;;;;17.92;7.85;;;6.60;99.90;;;;;;4990398;28;20045;-64
2023/10/18 02:51:24;;;;;;;17.15;8.35;;;6.60;99.90;;;;;;4991007;28;20384;-64
2023/10/18 02:54:04;;;;;;;20.23;9.48;;;6.50;99.90;;;;;;4988070;28;20026;-64
2023/10/18 02:56:37;;;;;;;15.27;7.03;;;6.50;99.90;;;;;;4988036;28;20022;-64
2023/10/18 02:59:09;;;;;;;15.32;8.45;;;6.60;99.90;;;;;;4990647;28;20030;-64
2023/10/18 03:01:40;;;;;;;15.93;8.68;;;6.50;99.90;;;;;;4986764;28;20432;-64
2023/10/18 03:04:12;;;;;;;19.10;8.27;;;6.50;99.90;;;;;;4989396;28;20085;-64
2023/10/18 03:06:38;;;;;;;14.02;7.45;;;6.60;99.90;;;;;;4987131;28;20373;-64
2023/10/18 03:09:06;;;;;;;15.00;7.85;;;6.50;99.90;;;;;;4990430;28;20034;-64
2023/10/18 03:11:36;;;;;;;16.67;8.35;;;6.50;99.90;;;;;;4990855;28;20042;-64
2023/10/18 03:14:12;;;;;;;19.33;8.63;;;6.50;99.90;;;;;;4989576;28;20026;-64
2023/10/18 03:19:18;;;;;;;14.40;7.40;;;6.60;99.90;;;;;;4991569;28;20034;-64
2023/10/18 03:21:48;;;;;;;19.88;8.35;;;6.60;99.90;;;;;;4994217;28;20473;-64
2023/10/18 03:24:19;;;;;;;15.02;7.40;;;6.60;99.90;;;;;;4989425;28;20022;-64
2023/10/18 03:26:47;;;;;;;15.48;7.75;;;6.60;99.90;;;;;;4986894;28;20088;-64
2023/10/18 03:29:16;;;;;;;16.00;7.88;;;6.50;99.90;;;;;;4991863;28;20048;-64
2023/10/18 03:31:47;;;;;;;16.85;8.13;;;6.50;99.90;;;;;;4986045;28;20477;-64
2023/10/18 03:34:18;;;;;;;16.45;7.43;;;6.40;99.90;;;;;;4988673;28;20026;-64
2023/10/18 03:36:53;;;;;;;15.20;7.82;;;6.40;99.90;;;;;;4988121;28;20026;-64
2023/10/18 03:39:25;;;;;;;16.35;8.43;;;6.40;99.90;;;;;;4984944;28;20026;-64
2023/10/18 03:41:51;;;;;;;12.98;7.50;;;6.40;99.90;;;;;;4986214;28;20133;-64
2023/10/18 03:44:32;;;;;;;18.65;8.30;;;6.40;99.90;;;;;;4988642;28;20037;-64
2023/10/18 03:47:04;;;;;;;15.25;7.50;;;6.40;99.90;;;;;;4989250;28;20396;-64
2023/10/18 03:49:37;;;;;;;15.88;7.40;;;6.40;99.90;;;;;;4989862;28;20633;-64
2023/10/18 03:54:46;;;;;;;13.20;7.63;;;6.40;99.90;;;;;;4988337;28;20026;-64
2023/10/18 03:57:18;;;;;;;14.70;7.80;;;6.40;99.90;;;;;;4986034;28;20085;-64
2023/10/18 03:59:45;;;;;;;13.27;7.07;;;6.40;99.90;;;;;;4987880;28;20033;-64
2023/10/18 04:02:16;;;;;;;17.90;8.10;;;6.40;99.90;;;;;;4991219;28;20034;-64
2023/10/18 04:04:48;;;;;;;15.07;8.27;;;6.40;99.90;;;;;;4986282;28;20046;-64
2023/10/18 04:07:16;;;;;;;14.15;7.28;;;6.40;99.90;;;;;;4987534;28;20136;-64
2023/10/18 04:12:29;;;;;;;17.50;6.95;;;6.40;99.90;;;;;;4987602;28;20026;-64
2023/10/18 04:15:19;;;;;;;15.18;7.50;;;6.40;99.90;;;;;;4986887;28;20109;-64
2023/10/18 04:17:42;;;;;;;14.07;7.40;;;6.30;99.90;;;;;;4984850;28;20031;-64
2023/10/18 04:22:42;;;;;;;18.13;8.20;;;6.30;99.90;;;;;;4989522;28;20034;-64
2023/10/18 04:25:57;;;;;;;19.58;7.40;;;6.40;99.90;;;;;;4988448;28;20056;-64
2023/10/18 04:28:02;;;;;;;17.35;8.63;;;6.40;99.90;;;;;;4978892;28;20507;-64
2023/10/18 04:30:32;;;;;;;16.30;8.27;;;6.40;99.90;;;;;;4987276;28;20034;-64
2023/10/18 04:33:00;;;;;;;18.90;7.80;;;6.40;99.90;;;;;;4989203;28;20476;-64
2023/10/18 04:35:33;;;;;;;;;;;6.40;99.90;;;;;;4989648;28;20062;-64
2023/10/18 04:37:58;;;;;;;12.60;7.40;;;6.40;99.90;;;;;;4987353;28;19917;-64
2023/10/18 04:40:28;;;;;;;14.48;7.30;;;6.50;99.90;;;;;;4988786;28;20491;-64
2023/10/18 04:42:55;;;;;;;16.35;7.43;;;6.40;99.90;;;;;;4986672;28;20031;-64
2023/10/18 04:45:26;;;;;;;16.55;7.60;;;6.40;99.90;;;;;;4986988;28;20026;-64
2023/10/18 04:47:58;;;;;;;12.07;6.95;;;6.30;99.90;;;;;;4987480;28;20065;-64
2023/10/18 04:50:32;;;;;;;14.50;7.28;;;6.30;99.90;;;;;;4988662;28;20457;-64
2023/10/18 04:53:04;;;;;;;14.95;6.63;;;6.20;99.90;;;;;;4984161;28;20496;-64
2023/10/18 04:55:34;;;;;;;16.42;7.82;;;6.20;99.90;;;;;;4986881;28;20404;-64
2023/10/18 04:58:05;;;;;;;14.93;7.90;;;6.20;99.90;;;;;;4985328;28;20397;-64
2023/10/18 05:00:39;;;;;;;16.52;8.07;;;6.10;99.90;;;;;;4988579;28;20023;-64
2023/10/18 05:03:13;;;;;;;17.42;7.55;;;6.10;99.90;;;;;;4988073;28;20034;-63
2023/10/18 05:05:44;;;;;;;16.92;8.43;;;6.10;99.90;;;;;;4989436;28;20033;-63
2023/10/18 05:08:13;;;;;;;15.68;8.05;;;6.10;99.90;;;;;;4986549;28;20029;-63
2023/10/18 05:10:45;;;;;;;16.45;7.78;;;6.10;99.90;;;;;;4983692;28;20037;-64
2023/10/18 05:16:05;;;;;;;15.65;7.78;;;6.10;99.90;;;;;;4986835;28;20032;-64
2023/10/18 05:18:33;;;;;;;14.63;7.90;;;6.10;99.90;;;;;;4987430;28;20026;-64
2023/10/18 05:20:58;;;;;;;;;;;6.00;99.90;;;;;;4985502;28;20030;-64
2023/10/18 05:23:32;;;;;;;13.88;7.30;;;6.00;99.90;;;;;;4987192;28;19992;-64
2023/10/18 05:28:24;;;;;;;23.05;8.75;;;6.10;99.90;;;;;;4988572;28;20027;-64
2023/10/18 05:41:21;;;;;;;20.42;9.02;;;6.20;99.90;;;;;;4986280;28;20109;-64
2023/10/18 05:43:47;;;;;;;30.08;9.48;;;6.30;99.90;;;;;;4985741;28;20062;-64
2023/10/18 05:46:20;;;;;;;26.75;10.48;;;6.20;99.90;;;;;;4985830;28;20066;-64
2023/10/18 05:48:47;;;;;;;29.42;10.23;;;6.30;99.90;;;;;;4985776;28;20023;-64
2023/10/18 05:53:50;;;;;;;19.70;9.30;;;6.30;99.90;;;;;;4987890;28;20031;-64
2023/10/18 05:56:22;;;;;;;33.58;10.52;;;6.40;99.90;;;;;;4986363;28;20027;-64
2023/10/18 05:59:15;;;;;;;21.98;9.73;;;6.30;99.90;;;;;;4987128;28;20070;-64
2023/10/18 06:01:36;;;;;;;21.48;9.27;;;6.30;99.90;;;;;;4983727;28;20555;-64
2023/10/18 06:04:01;;;;;;;21.67;10.23;;;6.30;99.90;;;;;;4988164;28;20046;-64
2023/10/18 06:06:30;;;;;;;21.55;9.52;;;6.30;99.90;;;;;;4988087;28;20551;-64
2023/10/18 06:08:57;;;;;;;19.63;9.07;;;6.30;99.90;;;;;;4987397;28;20033;-64
2023/10/18 06:11:23;;;;;;;20.23;9.07;;;6.30;99.90;;;;;;4987789;28;20030;-64
2023/10/18 06:13:49;;;;;;;16.88;8.80;;;6.30;99.90;;;;;;4989750;28;20602;-64
2023/10/18 06:16:20;;;;;;;18.75;9.52;;;6.30;99.90;;;;;;4985007;28;20022;-64
2023/10/18 06:18:48;;;;;;;22.23;9.65;;;6.30;99.90;;;;;;4982848;28;20019;-64
2023/10/18 06:21:19;;;;;;;25.85;9.63;;;6.30;99.90;;;;;;4983773;28;20036;-64
2023/10/18 06:23:55;;;;;;;20.08;9.63;;;6.30;99.90;;;;;;4985270;28;20049;-64
2023/10/18 06:26:30;;;;;;;19.42;8.63;;;6.30;99.90;;;;;;4986209;28;20058;-64
2023/10/18 06:29:02;;;;;;;21.20;9.88;;;6.40;99.90;;;;;;4984354;28;20030;-64
2023/10/18 06:31:31;;;;;;;26.95;10.98;;;6.40;99.90;;;;;;4986411;28;20054;-64
2023/10/18 06:34:02;;;;;;;20.25;9.80;;;6.40;99.90;;;;;;4983283;28;20073;-64
2023/10/18 06:36:33;;;;;;;25.70;10.45;;;6.40;99.90;;;;;;4986307;28;20018;-65
2023/10/18 06:38:59;;;;;;;23.85;10.43;;;6.40;99.90;;;;;;4977401;28;20034;-64
2023/10/18 06:41:29;;;;;;;18.67;9.93;;;6.40;99.90;;;;;;4979069;28;22681;-64
2023/10/18 06:43:58;;;;;;;23.73;10.98;;;6.40;99.90;;;;;;4983579;28;20388;-64
2023/10/18 06:46:27;;;;;;;23.20;10.98;;;6.50;99.90;;;;;;4991563;28;20030;-64
2023/10/18 06:48:57;;;;;;;17.92;9.25;;;6.60;99.90;;;;;;4981967;28;20105;-64
2023/10/18 06:51:40;;;;;;;23.48;10.73;;;6.60;99.90;;;;;;4986355;28;20486;-64
2023/10/18 06:54:13;;;;;;;19.60;10.35;;;6.60;99.90;;;;;;4989519;28;20130;-66
2023/10/18 06:56:53;;;;;;;28.25;12.10;;;6.70;99.90;;;;;;4988912;28;20049;-64
2023/10/18 06:59:25;;;;;;;21.70;10.20;;;6.80;99.90;;;;;;4983045;28;20018;-64
2023/10/18 07:01:58;;;;;;;21.48;11.90;;;6.70;99.90;;;;;;4985761;28;20030;-64
2023/10/18 07:04:37;;;;;;;20.85;10.50;;;6.70;99.90;;;;;;4988174;28;20484;-64
2023/10/18 07:07:11;;;;;;;22.17;11.38;;;6.70;99.90;;;;;;4988359;28;20049;-64
2023/10/18 07:09:37;;;;;;;24.38;11.23;;;6.90;99.90;;;;;;4985346;28;20038;-64
2023/10/18 07:12:03;;;;;;;25.17;12.23;;;6.80;99.90;;;;;;4991090;28;20105;-64
2023/10/18 07:14:35;;;;;;;22.13;11.60;;;6.90;99.90;;;;;;4987625;28;20218;-64
2023/10/18 07:17:04;;;;;;;19.75;11.50;;;6.90;99.90;;;;;;4986685;28;20563;-64
2023/10/18 07:19:35;;;;;;;22.60;11.60;;;7.00;99.90;;;;;;4985272;28;20026;-64
2023/10/18 07:22:06;;;;;;;20.42;11.18;;;7.00;99.90;;;;;;4988040;28;20019;-64
2023/10/18 07:24:32;;;;;;;24.25;11.18;;;7.00;99.90;;;;;;4991790;28;20073;-64
2023/10/18 07:26:59;;;;;;;21.83;11.18;;;7.10;99.90;;;;;;4987356;28;20031;-64
2023/10/18 07:29:27;;;;;;;21.42;11.32;;;7.20;99.90;;;;;;4988511;28;20096;-64
2023/10/18 07:31:59;;;;;;;19.58;11.02;;;7.10;99.90;;;;;;4988713;28;20026;-64
2023/10/18 07:34:32;;;;;;;21.05;11.85;;;7.10;99.90;;;;;;4988947;28;20042;-64
2023/10/18 07:37:16;;;;;;;20.52;11.68;;;7.10;99.90;;;;;;4988061;28;20048;-64
2023/10/18 07:39:42;;;;;;;22.92;12.00;;;7.10;99.90;;;;;;4985567;28;20056;-64
2023/10/18 07:42:11;;;;;;;22.73;12.05;;;7.20;99.90;;;;;;4989870;28;20381;-65
2023/10/18 07:44:46;;;;;;;23.77;12.90;;;7.30;99.90;;;;;;4992078;28;20101;-64
2023/10/18 07:47:19;;;;;;;31.48;12.50;;;7.40;99.90;;;;;;4987055;28;20121;-64
2023/10/18 07:49:50;;;;;;;30.95;14.30;;;7.50;99.90;;;;;;4989823;28;20034;-64
2023/10/18 07:52:18;;;;;;;35.25;15.95;;;7.60;99.90;;;;;;4984197;28;20026;-64
2023/10/18 07:54:49;;;;;;;29.08;14.75;;;7.70;99.90;;;;;;4983126;28;20027;-64
2023/10/18 07:57:18;;;;;;;24.52;13.20;;;7.60;99.90;;;;;;4987866;28;20100;-64
2023/10/18 07:59:46;;;;;;;28.48;14.43;;;7.70;99.90;;;;;;4988322;28;20025;-64
2023/10/18 08:02:13;;;;;;;30.23;15.07;;;7.80;99.90;;;;;;4987300;28;20064;-64
2023/10/18 08:04:43;;;;;;;33.88;14.23;;;7.80;99.90;;;;;;4989098;28;20049;-64
2023/10/18 08:07:15;;;;;;;26.27;13.93;;;7.70;99.90;;;;;;4986775;28;20113;-64
2023/10/18 08:09:43;;;;;;;27.17;13.75;;;7.80;99.90;;;;;;4989647;28;20033;-64
2023/10/18 08:15:13;;;;;;;24.58;12.93;;;7.90;99.90;;;;;;4985677;28;20054;-64
2023/10/18 08:17:44;;;;;;;27.95;13.55;;;7.80;99.90;;;;;;4987959;28;20031;-64
2023/10/18 08:22:50;;;;;;;25.67;14.25;;;8.00;99.90;;;;;;4981604;28;20022;-64
2023/10/18 08:25:29;;;;;;;24.17;13.30;;;8.00;99.90;;;;;;4981539;28;20022;-70
2023/10/18 08:27:57;;;;;;;25.25;13.93;;;8.20;99.90;;;;;;4978700;28;20026;-69
2023/10/18 08:33:07;;;;;;;29.35;14.85;;;8.30;99.90;;;;;;4986015;28;20445;-70
2023/10/18 08:35:33;;;;;;;29.10;13.77;;;8.30;99.90;;;;;;4986204;28;20042;-70
2023/10/18 08:38:01;;;;;;;28.80;14.65;;;8.40;99.90;;;;;;4986838;28;20069;-70
2023/10/18 08:43:18;;;;;;;29.85;14.70;;;8.50;99.90;;;;;;4988674;28;20030;-70
2023/10/18 08:45:48;;;;;;;29.15;14.45;;;8.60;99.90;;;;;;4989875;28;20121;-70
2023/10/18 08:48:20;;;;;;;29.35;15.95;;;8.70;99.90;;;;;;4984496;28;20061;-70
2023/10/18 08:50:49;;;;;;;37.78;16.38;;;8.70;99.90;;;;;;4983350;28;20030;-70
2023/10/18 08:53:21;;;;;;;36.33;16.02;;;8.70;99.90;;;;;;4982640;28;20026;-70
2023/10/18 08:55:53;;;;;;;29.30;15.73;;;8.70;99.90;;;;;;4984982;28;20500;-70
2023/10/18 08:58:20;;;;;;;29.05;15.13;;;8.80;99.90;;;;;;4982498;28;20501;-70
2023/10/18 09:03:29;;;;;;;28.20;14.90;;;8.80;99.90;;;;;;4983283;28;20500;-70
2023/10/18 09:06:07;;;;;;;32.47;15.38;;;8.90;99.90;;;;;;4987646;28;20046;-69
2023/10/18 09:08:42;;;;;;;32.72;15.50;;;9.00;99.90;;;;;;4984800;28;20534;-70
2023/10/18 09:11:22;;;;;;;32.28;14.57;;;9.00;99.90;;;;;;4986109;28;20033;-70
2023/10/18 09:14:07;;;;;;;30.98;16.65;;;9.10;99.90;;;;;;4989632;28;20026;-70
2023/10/18 09:16:37;;;;;;;26.08;14.48;;;9.20;99.90;;;;;;4984412;28;20484;-70
2023/10/18 09:19:06;;;;;;;41.67;18.15;;;9.20;99.90;;;;;;4987176;28;20021;-70
2023/10/18 09:21:51;;;;;;;29.17;15.27;;;9.40;99.90;;;;;;4988901;28;20781;-70
2023/10/18 09:24:23;;;;;;;31.50;15.05;;;9.50;99.90;;;;;;4987222;28;20527;-70
2023/10/18 09:26:50;;;;;;;32.95;14.95;;;9.50;99.90;;;;;;4984774;28;20038;-70
2023/10/18 09:29:17;;;;;;;31.77;16.10;;;9.60;99.90;;;;;;4983506;28;20064;-70
2023/10/18 09:31:54;;;;;;;26.67;14.80;;;9.70;99.90;;;;;;4986575;28;20804;-69
2023/10/18 09:34:23;;;;;;;31.42;14.57;;;9.70;99.90;;;;;;4983135;28;20477;-69
2023/10/18 09:36:54;;;;;;;25.63;13.10;;;9.80;99.90;;;;;;4982691;28;20692;-69
2023/10/18 09:39:37;;;;;;;29.80;13.57;;;9.90;99.90;;;;;;4977221;28;20026;-69
2023/10/18 09:42:06;;;;;;;28.00;11.82;;;9.90;99.90;;;;;;4980980;28;20030;-69
2023/10/18 09:44:31;;;;;;;20.77;11.55;;;9.90;99.90;;;;;;4985934;28;20053;-69
2023/10/18 09:46:59;;;;;;;26.63;12.38;;;10.00;99.90;;;;;;4980420;28;20035;-69
2023/10/18 09:49:28;;;;;;;26.50;12.75;;;10.00;99.90;;;;;;4980110;28;20037;-70
2023/10/18 09:51:54;;;;;;;21.75;12.60;;;10.00;99.90;;;;;;4981356;28;20038;-70
2023/10/18 09:54:25;;;;;;;23.75;11.73;;;10.10;99.90;;;;;;4982630;28;20084;-70
2023/10/18 09:56:55;;;;;;;21.15;10.70;;;10.20;99.90;;;;;;4985410;28;20026;-70
2023/10/18 09:59:30;;;;;;;23.98;12.07;;;10.20;99.90;;;;;;4983562;28;20030;-70
2023/10/18 10:02:15;;;;;;;45.28;12.07;;;10.30;99.90;;;;;;4983033;28;20034;-65
2023/10/18 10:04:44;;;;;;;22.38;12.65;;;10.30;99.90;;;;;;4985682;28;20041;-64
2023/10/18 10:07:28;;;;;;;55.42;13.40;;;10.40;99.90;;;;;;4979597;28;20035;-64
2023/10/18 10:10:07;;;;;;;27.77;12.52;;;10.50;99.90;;;;;;4980633;28;20022;-64
2023/10/18 10:12:34;;;;;;;23.48;11.88;;;10.60;99.90;;;;;;4974528;28;20026;-69
2023/10/18 10:15:00;;;;;;;25.48;12.02;;;10.70;99.90;;;;;;4986918;28;20515;-69
2023/10/18 10:17:28;;;;;;;25.73;12.10;;;10.80;99.90;;;;;;4986016;28;20113;-69
2023/10/18 10:20:15;;;;;;;27.27;13.13;;;10.80;99.90;;;;;;4982427;28;21459;-69
2023/10/18 10:22:42;;;;;;;22.73;11.18;;;10.90;99.90;;;;;;4987680;28;20030;-69
2023/10/18 10:25:15;;;;;;;25.25;12.27;;;11.00;99.90;;;;;;4990893;28;20062;-69
2023/10/18 10:27:49;;;;;;;23.13;11.20;;;11.20;99.90;;;;;;4990928;28;20113;-69
2023/10/18 10:30:37;;;;;;;25.55;11.45;;;11.30;99.90;;;;;;5002144;28;20080;-69
2023/10/18 10:33:05;;;;;;;23.52;11.23;;;11.40;99.90;;;;;;4991249;28;20405;-69
2023/10/18 10:35:35;;;;;;;54.17;13.85;;;11.50;99.90;;;;;;4985663;28;20022;-70
2023/10/18 10:38:01;;;;;;;19.08;11.18;;;11.60;99.90;;;;;;4991242;28;20026;-71
2023/10/18 10:43:08;;;;;;;23.80;10.75;;;11.80;99.90;;;;;;4991165;28;20468;-71
2023/10/18 10:50:50;;;;;;;16.65;9.65;;;12.00;99.90;;;;;;4993395;28;20456;-72
2023/10/18 10:53:48;;;;;;;19.38;10.18;;;12.00;99.40;;;;;;4995521;28;20025;-72
2023/10/18 10:56:17;;;;;;;17.83;9.15;;;12.10;99.80;;;;;;4990866;28;20035;-72
2023/10/18 10:59:02;;;;;;;20.15;9.25;;;12.20;99.20;;;;;;4998987;28;20025;-72
2023/10/18 11:01:43;;;;;;;15.95;8.40;;;12.30;98.90;;;;;;4988524;28;20026;-72
2023/10/18 11:04:24;;;;;;;16.08;8.02;;;12.30;98.10;;;;;;4987956;28;20499;-72
2023/10/18 11:06:56;;;;;;;16.50;8.25;;;12.30;97.90;;;;;;4987787;28;20038;-72
2023/10/18 11:09:34;;;;;;;14.15;7.78;;;12.40;97.70;;;;;;4987322;28;20548;-72
2023/10/18 11:12:08;;;;;;;15.75;7.30;;;12.40;98.00;;;;;;4984542;28;20351;-72
2023/10/18 11:14:35;;;;;;;16.52;8.30;;;12.40;97.20;;;;;;4988524;28;20025;-71
2023/10/18 11:19:58;;;;;;;16.23;7.80;;;12.50;96.90;;;;;;4992385;28;20026;-72
2023/10/18 11:22:29;;;;;;;14.30;7.32;;;12.60;97.00;;;;;;4994622;28;20019;-72
2023/10/18 11:24:56;;;;;;;14.52;7.05;;;12.70;96.90;;;;;;4994743;28;20041;-72
2023/10/18 11:27:23;;;;;;;16.35;8.10;;;12.80;96.90;;;;;;4991724;28;20117;-73
2023/10/18 11:29:55;;;;;;;10.88;7.20;;;12.90;96.60;;;;;;4986171;28;20030;-74
2023/10/18 11:32:27;;;;;;;15.77;7.43;;;12.90;97.10;;;;;;4989700;28;20404;-72
2023/10/18 11:35:08;;;;;;;14.18;6.97;;;13.10;96.40;;;;;;4983448;28;20023;-71
2023/10/18 11:37:38;;;;;;;13.68;6.43;;;13.30;96.60;;;;;;4988295;28;20030;-72
2023/10/18 11:40:29;;;;;;;13.18;6.88;;;13.30;95.70;;;;;;4990098;28;20022;-72
2023/10/18 11:43:05;;;;;;;9.88;6.05;;;13.30;95.40;;;;;;4987366;28;20092;-72
2023/10/18 11:45:36;;;;;;;9.25;5.68;;;13.30;95.80;;;;;;4985901;28;20512;-72
2023/10/18 11:48:05;;;;;;;8.65;5.60;;;13.30;95.20;;;;;;4986869;28;20035;-72
2023/10/18 11:50:41;;;;;;;10.15;5.35;;;13.40;95.00;;;;;;4990026;28;20027;-72
2023/10/18 11:53:14;;;;;;;10.77;5.18;;;13.40;95.50;;;;;;4988572;28;20073;-71
2023/10/18 11:56:05;;;;;;;12.30;5.72;;;13.50;95.30;;;;;;4990027;28;20026;-72
2023/10/18 11:58:33;;;;;;;9.35;5.22;;;13.40;94.50;;;;;;4988252;28;20501;-72
2023/10/18 12:01:00;;;;;;;10.32;5.22;;;13.30;94.40;;;;;;4987168;28;20030;-73
2023/10/18 12:03:27;;;;;;;10.52;5.28;;;13.20;94.10;;;;;;4990173;28;20385;-73
2023/10/18 12:05:57;;;;;;;8.23;4.80;;;13.10;94.10;;;;;;4989723;28;20030;-73
2023/10/18 12:08:30;;;;;;;9.60;5.45;;;13.10;94.00;;;;;;4988928;28;20061;-72
2023/10/18 12:10:57;;;;;;;8.15;4.68;;;13.00;94.30;;;;;;4989141;28;20023;-73
2023/10/18 12:13:26;;;;;;;8.80;5.20;;;12.90;94.40;;;;;;4985684;28;20030;-72
2023/10/18 12:15:52;;;;;;;11.57;5.18;;;13.00;94.70;;;;;;4990332;28;20039;-72
2023/10/18 12:18:21;;;;;;;9.80;4.60;;;13.10;94.70;;;;;;4985670;28;20029;-73
2023/10/18 12:20:46;;;;;;;11.30;4.65;;;13.00;94.70;;;;;;4990816;28;20552;-72
2023/10/18 12:23:13;;;;;;;10.32;5.20;;;13.00;94.90;;;;;;4992185;28;20134;-72
2023/10/18 12:25:42;;;;;;;8.85;5.25;;;13.10;94.60;;;;;;4985438;28;20022;-72
2023/10/18 12:28:17;;;;;;;10.35;5.10;;;13.00;94.40;;;;;;4989962;28;20026;-72
2023/10/18 12:30:44;;;;;;;7.95;4.45;;;13.00;94.50;;;;;;4988941;28;20048;-72
2023/10/18 12:33:23;;;;;;;13.13;5.05;;;12.90;94.70;;;;;;4986475;28;20568;-74
2023/10/18 12:35:51;;;;;;;8.85;4.15;;;12.90;93.90;;;;;;4985422;28;20050;-73
2023/10/18 12:38:24;;;;;;;9.68;4.85;;;12.90;94.30;;;;;;4989986;28;20026;-72
2023/10/18 12:40:58;;;;;;;7.82;4.75;;;12.80;94.10;;;;;;4986293;28;20437;-73
2023/10/18 12:43:25;;;;;;;8.38;4.47;;;12.80;94.20;;;;;;4989766;28;20101;-72
2023/10/18 12:45:53;;;;;;;9.05;4.25;;;12.90;94.00;;;;;;4987343;28;20022;-72
2023/10/18 12:48:22;;;;;;;;;;;12.90;94.40;;;;;;4988559;28;20034;-73
2023/10/18 12:50:57;;;;;;;8.52;4.13;;;12.90;94.80;;;;;;4988246;28;20332;-72
2023/10/18 12:55:57;;;;;;;7.13;3.95;;;12.90;95.10;;;;;;4989092;28;20022;-72
2023/10/18 12:58:28;;;;;;;8.75;4.55;;;12.90;95.10;;;;;;4991714;28;20040;-72
2023/10/18 13:01:01;;;;;;;11.82;5.53;;;13.00;95.00;;;;;;4984407;28;20027;-72
2023/10/18 13:03:33;;;;;;;10.48;5.60;;;13.00;95.60;;;;;;4987888;28;20395;-72
2023/10/18 13:05:58;;;;;;;8.57;5.22;;;13.00;95.80;;;;;;4987786;28;20365;-73
2023/10/18 13:08:26;;;;;;;8.30;5.60;;;12.90;95.90;;;;;;4995652;28;20084;-73
2023/10/18 13:11:18;;;;;;;9.85;5.20;;;12.90;95.90;;;;;;4994927;28;20396;-72
2023/10/18 13:13:44;;;;;;;18.02;5.72;;;12.90;96.20;;;;;;4984285;28;20580;-73
2023/10/18 13:16:16;;;;;;;12.25;5.82;;;12.90;96.10;;;;;;4985519;28;20074;-73
2023/10/18 13:18:42;;;;;;;9.95;5.63;;;12.90;96.20;;;;;;4986673;28;20029;-72
2023/10/18 13:21:11;;;;;;;10.27;5.43;;;12.90;96.10;;;;;;4991159;28;20030;-73
2023/10/18 13:23:39;;;;;;;9.68;5.20;;;12.80;96.20;;;;;;4993162;28;20494;-72
2023/10/18 13:26:04;;;;;;;7.70;5.27;;;12.80;96.20;;;;;;4989774;28;20057;-73
2023/10/18 13:28:33;;;;;;;7.65;4.90;;;12.80;96.30;;;;;;4985607;28;20837;-73
2023/10/18 13:31:04;;;;;;;10.43;4.95;;;12.80;96.30;;;;;;4983817;28;20089;-72
2023/10/18 13:33:33;;;;;;;12.35;5.00;;;12.80;96.20;;;;;;4983876;28;20109;-72
2023/10/18 13:35:58;;;;;;;10.18;6.22;;;12.80;96.40;;;;;;4984915;28;20031;-72
2023/10/18 13:38:28;;;;;;;9.80;4.70;;;12.70;96.20;;;;;;4985451;28;20021;-72
2023/10/18 13:40:53;;;;;;;7.60;4.53;;;12.80;96.10;;;;;;4985489;28;20040;-74
2023/10/18 13:43:19;;;;;;;9.07;4.63;;;12.70;96.20;;;;;;4992493;28;20026;-73
2023/10/18 13:45:46;;;;;;;10.18;5.38;;;12.80;96.40;;;;;;4984194;28;20121;-73
2023/10/18 13:48:11;;;;;;;14.35;5.70;;;12.80;95.90;;;;;;4988236;28;20015;-73
2023/10/18 13:50:38;;;;;;;11.85;5.30;;;12.80;95.90;;;;;;4988071;28;20085;-72
2023/10/18 13:53:05;;;;;;;9.25;5.10;;;12.80;95.90;;;;;;4998516;28;20027;-74
2023/10/18 13:55:30;;;;;;;9.85;5.57;;;12.80;95.90;;;;;;4989890;28;20129;-73
2023/10/18 13:57:57;;;;;;;7.13;4.85;;;12.90;96.10;;;;;;4990631;28;20544;-72
2023/10/18 14:00:27;;;;;;;7.55;4.90;;;12.90;95.80;;;;;;4992561;28;20793;-72
2023/10/18 14:02:55;;;;;;;8.82;4.78;;;12.80;95.30;;;;;;4994073;28;20097;-72
2023/10/18 14:05:25;;;;;;;8.18;4.55;;;12.80;95.50;;;;;;4994561;28;20503;-73